Archival Weather

Snohomish County (Paine Fld)

Everett, Washington (KPAE)

Report from: Thursday, November 2, 2023 3:35 AM PDT
Current time: Sunday, June 16, 2024 11:34 PM PDT

Current weather – Weather history – Daily summaries
Weather forecast

Present weatherLight rain, mist
Temperature11.7°C (53.1°F)
Dew point10.6°C (51.1°F)
Winds 12 kts (6.2 m/s, 13.8 mph) South-Southeast (150°)
Wind gusts 19 kts (9.8 m/s, 21.9 mph)
Visibility2.5 mi. (4 km)
Clouds Few clouds 500 ft. (152 m)
Ceiling: Broken clouds 1,000 ft. (305 m)
Overcast 1,600 ft. (488 m)
Altimeter29.76 in.Hg (1008 mB)
Precipitiation0.01 in. (0 mm)
Relative humidity93 %
Density altitude-27 ft. (-8 m)
Remarks Fully automated report
System requires maintenance
Automated weather observing station with precipitation discriminator
Flight conditions Instrument Meteorological Conditions
Raw dataKPAE 021035Z AUTO 15012G19KT 2 1/2SM -RA BR FEW005 BKN010 OVC016 12/11 A2976 RMK AO2 P0001 T01170106 $
An error has occurred. This application may no longer respond until reloaded. Reload 🗙